Time;durP1;ratioP1;P1;durP2;ratioP2;P2;SDS_P1;SDS_P2;PMS_P1;PMS_P2;Temp;Humidity;BMP_temperature;BMP_pressure;BME280_temperature;BME280_humidity;BME280_pressure;Samples;Min_cycle;Max_cycle;Signal;HPM_P1;HPM_P2
2022/08/26 00:00:34;;;;;;;9.90;3.97;;;;;;;21.61;40.45;100241.74;1754667;80;21083;-57
2022/08/26 00:03:01;;;;;;;11.23;4.87;;;;;;;21.50;40.58;100247.24;1720563;80;21039;-57
2022/08/26 00:05:28;;;;;;;10.40;5.73;;;;;;;21.44;40.80;100244.27;1720030;80;21173;-58
2022/08/26 00:07:56;;;;;;;15.33;5.93;;;;;;;21.37;40.92;100247.96;1766897;79;21364;-59
2022/08/26 00:10:23;;;;;;;13.60;6.30;;;;;;;21.30;41.04;100255.83;1754330;80;21233;-58
2022/08/26 00:12:50;;;;;;;13.43;6.03;;;;;;;21.25;41.25;100258.42;1727979;80;21559;-57
2022/08/26 00:15:19;;;;;;;13.80;5.57;;;;;;;21.19;41.51;100258.13;1720210;80;21020;-68
2022/08/26 00:17:48;;;;;;;12.60;5.93;;;;;;;21.16;41.73;100263.40;1738446;80;21592;-67
2022/08/26 00:20:19;;;;;;;12.83;5.83;;;;;;;21.12;42.00;100264.43;1719554;81;21089;-57
2022/08/26 00:22:47;;;;;;;9.23;5.15;;;;;;;21.08;42.24;100270.49;1751601;81;20998;-56
2022/08/26 00:25:14;;;;;;;14.33;5.90;;;;;;;21.01;42.48;100266.72;1749423;81;21028;-56
2022/08/26 00:27:42;;;;;;;12.57;5.67;;;;;;;20.98;42.73;100267.21;1739860;80;21110;-58
2022/08/26 00:30:14;;;;;;;10.30;4.97;;;;;;;20.94;43.01;100271.95;1721087;80;21698;-56
2022/08/26 00:32:41;;;;;;;11.53;6.50;;;;;;;20.87;43.31;100266.84;1746504;80;21060;-56
2022/08/26 00:35:10;;;;;;;13.10;7.07;;;;;;;20.81;43.57;100266.53;1752221;80;21098;-66
2022/08/26 00:37:38;;;;;;;14.20;7.50;;;;;;;20.75;43.79;100263.55;1722441;79;21434;-56
2022/08/26 00:40:08;;;;;;;14.70;7.70;;;;;;;20.70;43.89;100266.16;1737733;80;21030;-56
2022/08/26 00:42:35;;;;;;;22.50;10.57;;;;;;;20.66;44.07;100263.20;1740305;80;21868;-56
2022/08/26 00:45:04;;;;;;;21.97;10.97;;;;;;;20.63;44.15;100259.73;1729293;80;21053;-55
2022/08/26 00:47:38;;;;;;;20.83;12.23;;;;;;;20.61;44.34;100261.31;1745895;80;21035;-55
2022/08/26 00:50:09;;;;;;;20.03;10.73;;;;;;;20.60;44.41;100257.05;1753864;79;21051;-57
2022/08/26 00:52:36;;;;;;;17.35;10.60;;;;;;;20.57;44.57;100250.94;1755263;80;21015;-66
2022/08/26 00:55:22;;;;;;;25.57;12.63;;;;;;;20.53;44.76;100247.70;1744883;80;22053;-56
2022/08/26 00:57:49;;;;;;;36.17;16.87;;;;;;;20.51;44.90;100253.25;1762654;80;20997;-61
2022/08/26 01:00:21;;;;;;;36.90;22.10;;;;;;;20.47;45.01;100242.85;1739590;80;21043;-65
2022/08/26 01:02:49;;;;;;;37.23;22.17;;;;;;;20.46;45.04;100238.61;1729945;80;21099;-55
2022/08/26 01:05:17;;;;;;;38.27;22.97;;;;;;;20.44;45.17;100235.41;1760647;80;21031;-55
2022/08/26 01:07:45;;;;;;;31.27;19.37;;;;;;;20.45;45.26;100234.34;1741952;81;21226;-57
2022/08/26 01:10:17;;;;;;;40.27;23.67;;;;;;;20.45;45.36;100218.98;1738423;80;21114;-56
2022/08/26 01:12:49;;;;;;;35.95;20.32;;;;;;;20.39;45.53;100214.97;1733417;80;25181;-55
2022/08/26 01:15:21;;;;;;;30.60;16.73;;;;;;;20.38;45.75;100209.91;1733281;80;21124;-55
2022/08/26 01:17:48;;;;;;;20.03;10.60;;;;;;;20.33;46.06;100204.04;1757506;80;21189;-55
2022/08/26 01:20:42;;;;;;;13.93;7.43;;;;;;;20.30;46.17;100206.38;1738475;79;21143;-57
2022/08/26 01:23:09;;;;;;;12.87;5.83;;;;;;;20.33;46.30;100216.48;1741486;80;21053;-64
2022/08/26 01:25:41;;;;;;;15.27;5.93;;;;;;;20.34;46.36;100203.52;1745881;80;22002;-58
2022/08/26 01:28:20;;;;;;;14.97;5.30;;;;;;;20.36;46.39;100206.20;1729378;80;21706;-55
2022/08/26 01:30:47;;;;;;;11.73;5.07;;;;;;;20.37;46.63;100203.81;1751283;81;21567;-64
2022/08/26 01:33:17;;;;;;;10.40;5.27;;;;;;;20.41;46.83;100208.09;1753249;80;21579;-56
2022/08/26 01:35:44;;;;;;;8.80;4.97;;;;;;;20.39;46.91;100213.65;1758544;80;20929;-55
2022/08/26 01:38:12;;;;;;;18.10;5.13;;;;;;;20.37;47.15;100216.25;1748150;80;21388;-56
2022/08/26 01:40:41;;;;;;;11.40;5.37;;;;;;;20.39;47.31;100222.91;1749750;79;21056;-56
2022/08/26 01:43:13;;;;;;;10.55;5.75;;;;;;;20.41;47.46;100218.68;1751953;79;21083;-59
2022/08/26 01:45:40;;;;;;;;;;;;;;;20.40;47.71;100224.50;1757386;80;21936;-58
2022/08/26 01:48:11;;;;;;;13.63;7.10;;;;;;;20.37;48.07;100232.94;1739968;80;20328;-58
2022/08/26 01:50:39;;;;;;;13.20;8.43;;;;;;;20.32;48.26;100235.54;1728725;80;20924;-56
2022/08/26 01:53:08;;;;;;;24.73;9.30;;;;;;;20.29;48.52;100239.20;1745256;80;21229;-57
2022/08/26 01:55:36;;;;;;;22.20;12.73;;;;;;;20.28;48.87;100229.67;1745993;79;21129;-56
2022/08/26 01:58:08;;;;;;;21.97;14.87;;;;;;;20.22;49.05;100237.27;1752139;80;21268;-57
2022/08/26 02:00:35;;;;;;;29.77;18.87;;;;;;;20.17;49.24;100229.55;1742068;80;21007;-56
2022/08/26 02:03:15;;;;;;;31.47;19.10;;;;;;;20.12;49.49;100240.08;1729574;80;20972;-56
2022/08/26 02:05:58;;;;;;;27.60;16.40;;;;;;;20.07;49.64;100243.97;1762621;80;21088;-56
2022/08/26 02:08:30;;;;;;;30.50;14.63;;;;;;;20.01;49.74;100250.26;1735672;80;21249;-58
2022/08/26 02:10:58;;;;;;;25.57;12.23;;;;;;;19.98;50.04;100248.62;1728107;80;21198;-56
2022/08/26 02:13:29;;;;;;;21.40;9.90;;;;;;;19.96;50.03;100243.56;1740969;80;22173;-56
2022/08/26 02:15:56;;;;;;;18.60;9.93;;;;;;;20.01;49.98;100238.35;1726310;80;21353;-56
2022/08/26 02:18:24;;;;;;;18.83;9.70;;;;;;;20.04;49.98;100243.16;1733785;80;20996;-56
2022/08/26 02:20:52;;;;;;;19.30;9.73;;;;;;;20.05;49.88;100245.28;1737999;80;21105;-57
2022/08/26 02:23:20;;;;;;;16.40;8.67;;;;;;;20.07;49.74;100245.29;1731439;80;21265;-63
2022/08/26 02:26:09;;;;;;;18.30;7.27;;;;;;;20.09;49.73;100245.06;1731438;80;21499;-56
2022/08/26 02:28:53;;;;;;;16.37;7.60;;;;;;;20.10;49.69;100245.33;1744636;80;21612;-56
2022/08/26 02:31:20;;;;;;;17.90;8.40;;;;;;;20.11;49.68;100249.56;1742955;80;21008;-58
2022/08/26 02:33:49;;;;;;;15.07;7.93;;;;;;;20.10;49.82;100250.63;1759776;80;21739;-57
2022/08/26 02:36:20;;;;;;;21.23;8.37;;;;;;;20.09;49.93;100259.61;1744116;80;22053;-56
2022/08/26 02:38:47;;;;;;;;;;;;;;;20.07;50.11;100260.37;1737796;80;21067;-60
2022/08/26 02:41:14;;;;;;;17.63;8.50;;;;;;;20.04;50.50;100263.00;1725831;80;20171;-57
2022/08/26 02:43:42;;;;;;;16.90;8.33;;;;;;;19.97;50.88;100270.31;1740685;80;21012;-57
2022/08/26 02:46:09;;;;;;;18.83;9.40;;;;;;;19.88;51.42;100275.20;1757640;80;21024;-57
2022/08/26 02:48:37;;;;;;;21.67;9.27;;;;;;;19.82;51.89;100285.45;1749582;80;21197;-57
2022/08/26 02:51:05;;;;;;;23.60;8.73;;;;;;;19.77;52.40;100283.24;1740895;80;21076;-65
2022/08/26 02:53:32;;;;;;;14.17;7.63;;;;;;;19.73;52.90;100283.45;1732347;80;21269;-56
2022/08/26 02:55:59;;;;;;;15.90;7.37;;;;;;;19.69;53.31;100284.45;1738204;80;21286;-56
2022/08/26 02:58:26;;;;;;;19.43;7.57;;;;;;;19.67;53.64;100283.92;1750129;79;21341;-57
2022/08/26 03:00:54;;;;;;;15.73;6.60;;;;;;;19.66;53.82;100302.95;1730688;80;21545;-56
2022/08/26 03:03:21;;;;;;;15.87;7.13;;;;;;;19.68;54.02;100287.63;1733702;80;21593;-64
2022/08/26 03:05:48;;;;;;;14.47;6.43;;;;;;;19.66;54.28;100292.38;1743260;80;22026;-56
2022/08/26 03:08:16;;;;;;;12.63;5.40;;;;;;;19.73;54.21;100284.78;1735125;80;21023;-57
2022/08/26 03:10:45;;;;;;;13.20;5.80;;;;;;;19.76;54.16;100285.09;1747850;81;21081;-56
2022/08/26 03:13:12;;;;;;;12.97;6.20;;;;;;;19.83;54.06;100293.66;1740227;81;21216;-59
2022/08/26 03:15:40;;;;;;;11.03;5.10;;;;;;;19.89;53.75;100296.67;1742871;80;21416;-57
2022/08/26 03:18:07;;;;;;;11.63;5.47;;;;;;;19.99;53.66;100295.99;1755924;80;21110;-56
2022/08/26 03:20:34;;;;;;;11.47;5.83;;;;;;;20.03;53.56;100297.63;1743758;80;21155;-58
2022/08/26 03:23:02;;;;;;;10.33;5.53;;;;;;;20.11;53.47;100294.03;1760707;80;21087;-60
2022/08/26 03:25:30;;;;;;;14.50;5.47;;;;;;;20.17;53.37;100291.73;1740988;80;21298;-65
2022/08/26 03:27:57;;;;;;;12.50;4.77;;;;;;;20.29;53.04;100301.41;1739812;81;22369;-57
2022/08/26 03:30:39;;;;;;;13.03;5.00;;;;;;;20.39;52.66;100301.02;1739678;81;21847;-56
2022/08/26 03:33:09;;;;;;;10.77;5.00;;;;;;;20.54;52.45;100298.30;1760488;80;21008;-65
2022/08/26 03:35:37;;;;;;;10.23;4.47;;;;;;;20.85;51.59;100291.48;1746311;80;21385;-56
2022/08/26 03:38:06;;;;;;;13.03;5.67;;;;;;;21.26;50.55;100296.62;1734794;80;21097;-59
2022/08/26 03:40:36;;;;;;;11.47;4.77;;;;;;;21.69;49.05;100286.09;1723721;80;21027;-56
2022/08/26 03:43:03;;;;;;;12.07;4.87;;;;;;;21.84;47.81;100284.33;1739982;80;21489;-56
2022/08/26 03:45:31;;;;;;;11.77;4.80;;;;;;;21.77;47.77;100294.89;1733153;81;21364;-57
2022/08/26 03:47:59;;;;;;;11.27;5.27;;;;;;;21.67;47.83;100290.84;1748480;81;21353;-56
2022/08/26 03:50:26;;;;;;;13.57;5.33;;;;;;;21.55;47.96;100301.64;1738545;80;21078;-56
2022/08/26 03:52:53;;;;;;;11.20;5.30;;;;;;;21.48;48.08;100309.01;1739570;80;21105;-56
2022/08/26 03:55:24;;;;;;;11.17;5.93;;;;;;;21.40;48.26;100310.27;1743203;80;21846;-63
2022/08/26 03:57:51;;;;;;;13.48;6.45;;;;;;;21.32;48.61;100311.51;1736421;80;21035;-55
2022/08/26 04:00:19;;;;;;;10.90;6.10;;;;;;;21.28;48.74;100316.25;1728166;80;20944;-58
2022/08/26 04:02:47;;;;;;;14.17;6.50;;;;;;;21.24;49.12;100319.13;1721235;80;21587;-56
2022/08/26 04:05:16;;;;;;;12.97;6.30;;;;;;;21.20;49.47;100323.34;1747078;80;20963;-58
2022/08/26 04:07:45;;;;;;;16.00;6.83;;;;;;;21.18;49.45;100320.95;1741967;80;21088;-55
2022/08/26 04:10:14;;;;;;;12.07;6.37;;;;;;;21.21;49.40;100320.95;1756992;80;21066;-64
2022/08/26 04:12:41;;;;;;;12.40;6.83;;;;;;;21.22;49.83;100318.07;1752767;80;21064;-55
2022/08/26 04:15:11;;;;;;;12.80;7.43;;;;;;;21.33;49.87;100320.32;1731755;80;21229;-64
2022/08/26 04:17:38;;;;;;;17.87;7.90;;;;;;;21.54;49.38;100329.22;1730219;80;21122;-55
2022/08/26 04:20:06;;;;;;;12.80;8.03;;;;;;;21.73;48.63;100336.26;1733374;80;22535;-66
2022/08/26 04:22:33;;;;;;;17.97;8.93;;;;;;;21.82;48.40;100336.05;1772014;80;21066;-55
2022/08/26 04:25:01;;;;;;;14.23;8.87;;;;;;;21.91;47.76;100335.06;1751811;80;21039;-63
2022/08/26 04:27:28;;;;;;;19.23;11.57;;;;;;;22.03;47.70;100331.14;1751514;80;21235;-57
2022/08/26 04:29:56;;;;;;;23.00;12.93;;;;;;;22.20;46.89;100330.19;1731039;80;21616;-55
2022/08/26 04:32:23;;;;;;;22.37;13.97;;;;;;;22.38;46.59;100336.39;1729001;80;20986;-55
2022/08/26 04:34:50;;;;;;;29.40;18.00;;;;;;;22.52;46.02;100337.52;1740676;80;21520;-56
2022/08/26 04:37:17;;;;;;;22.93;15.07;;;;;;;22.67;45.83;100346.61;1734131;80;20975;-55
2022/08/26 04:39:45;;;;;;;27.10;16.17;;;;;;;22.79;45.60;100353.81;1756866;79;21166;-56
2022/08/26 04:42:12;;;;;;;23.00;14.20;;;;;;;22.93;45.22;100349.63;1732473;80;21002;-63
2022/08/26 04:44:40;;;;;;;25.97;15.33;;;;;;;23.04;44.89;100358.44;1742838;80;21170;-65
2022/08/26 04:47:08;;;;;;;23.27;14.87;;;;;;;23.13;44.83;100346.74;1745173;80;21122;-58
2022/08/26 04:49:37;;;;;;;19.27;12.27;;;;;;;23.16;44.69;100352.33;1725381;80;21094;-55
2022/08/26 04:52:05;;;;;;;25.03;11.27;;;;;;;23.16;44.49;100352.33;1738868;81;21272;-65
2022/08/26 04:54:32;;;;;;;18.40;10.97;;;;;;;23.14;44.45;100354.98;1740907;81;21041;-56
2022/08/26 04:57:00;;;;;;;20.17;10.93;;;;;;;23.09;44.77;100353.66;1740736;80;21055;-60
2022/08/26 04:59:27;;;;;;;15.57;9.33;;;;;;;23.05;45.03;100351.52;1743443;80;21502;-56
2022/08/26 05:01:59;;;;;;;15.77;9.47;;;;;;;23.09;45.18;100343.02;1743038;80;21059;-56
2022/08/26 05:04:26;;;;;;;20.77;11.97;;;;;;;23.17;45.35;100338.50;1750145;80;21220;-62
2022/08/26 05:06:55;;;;;;;16.60;10.40;;;;;;;23.38;45.25;100334.00;1742429;80;21106;-66
2022/08/26 05:09:22;;;;;;;22.13;10.57;;;;;;;23.61;44.54;100319.36;1733800;80;21614;-55
2022/08/26 05:11:50;;;;;;;19.73;11.53;;;;;;;23.71;43.99;100317.48;1762419;80;21193;-56
2022/08/26 05:14:17;;;;;;;22.40;13.60;;;;;;;23.80;43.89;100319.09;1743806;80;21034;-55
2022/08/26 05:16:45;;;;;;;19.40;12.17;;;;;;;23.96;43.67;100322.52;1735114;80;21241;-55
2022/08/26 05:19:15;;;;;;;22.00;13.03;;;;;;;24.34;43.15;100318.39;1757796;80;20961;-55
2022/08/26 05:21:43;;;;;;;20.00;13.83;;;;;;;25.04;42.23;100315.65;1746254;80;21161;-55
2022/08/26 05:24:13;;;;;;;20.43;13.90;;;;;;;25.89;40.59;100320.55;1727849;80;21111;-55
2022/08/26 05:26:40;;;;;;;21.27;11.38;;;;;;;26.60;39.52;100321.61;1760770;80;21178;-57
2022/08/26 05:29:07;;;;;;;18.47;11.30;;;;;;;27.24;38.78;100308.66;1744318;80;22525;-63
2022/08/26 05:31:34;;;;;;;21.67;12.10;;;;;;;27.70;37.05;100312.41;1742707;80;21051;-56
2022/08/26 05:34:03;;;;;;;20.60;12.85;;;;;;;28.03;36.33;100313.14;1743970;79;21047;-57
2022/08/26 05:36:32;;;;;;;18.75;11.15;;;;;;;28.31;36.18;100305.34;1723594;80;21532;-64
2022/08/26 05:38:59;;;;;;;17.35;11.45;;;;;;;28.86;35.04;100303.86;1727073;80;21150;-57
2022/08/26 05:41:32;;;;;;;16.95;9.88;;;;;;;29.39;34.08;100303.69;1720522;80;21629;-56
2022/08/26 05:43:59;;;;;;;17.12;7.15;;;;;;;29.76;33.17;100305.72;1749738;80;21060;-56
2022/08/26 05:46:27;;;;;;;13.85;7.08;;;;;;;29.96;32.46;100305.14;1728335;80;20992;-58
2022/08/26 05:48:55;;;;;;;12.45;6.17;;;;;;;29.93;31.87;100299.07;1725594;80;21589;-67
2022/08/26 05:51:22;;;;;;;13.95;7.53;;;;;;;29.64;32.09;100299.59;1727623;80;21522;-56
2022/08/26 05:53:49;;;;;;;10.48;6.33;;;;;;;29.17;32.68;100305.05;1735429;80;21460;-56
2022/08/26 05:56:24;;;;;;;6.58;3.77;;;;;;;28.73;32.85;100307.41;1747046;80;21024;-68
2022/08/26 05:58:50;;;;;;;8.20;4.17;;;;;;;28.35;33.02;100312.23;1748606;80;21503;-56
2022/08/26 06:01:20;;;;;;;7.17;3.30;;;;;;;28.01;33.58;100308.64;1749082;80;21020;-56
2022/08/26 06:03:50;;;;;;;7.28;3.25;;;;;;;27.76;34.10;100316.60;1750588;80;21044;-55
2022/08/26 06:06:20;;;;;;;11.28;3.42;;;;;;;27.75;34.44;100306.98;1732500;80;21188;-56
2022/08/26 06:08:47;;;;;;;7.42;3.02;;;;;;;28.04;34.13;100309.39;1738010;80;21857;-56
2022/08/26 06:11:18;;;;;;;9.65;3.05;;;;;;;28.38;34.16;100308.98;1736882;80;21091;-56
2022/08/26 06:13:45;;;;;;;7.23;3.40;;;;;;;28.83;33.10;100309.86;1752363;80;21576;-56
2022/08/26 06:16:14;;;;;;;9.68;3.83;;;;;;;28.83;33.10;100309.86;1763178;80;21570;-56
2022/08/26 06:18:43;;;;;;;9.58;3.20;;;;;;;28.92;32.66;100303.77;1757422;79;21213;-55
2022/08/26 06:21:23;;;;;;;7.90;3.15;;;;;;;28.77;32.78;100300.88;1748620;80;21047;-63
2022/08/26 06:26:39;;;;;;;6.60;3.22;;;;;;;28.50;32.70;100297.73;1760977;80;20956;-57
2022/08/26 06:29:06;;;;;;;9.30;3.12;;;;;;;28.40;32.43;100295.27;1744918;80;21110;-57
2022/08/26 06:31:35;;;;;;;7.78;2.85;;;;;;;28.39;30.94;100292.34;1746025;80;21868;-55
2022/08/26 06:34:03;;;;;;;8.08;2.77;;;;;;;28.34;31.52;100303.41;1729020;80;21027;-57
2022/08/26 06:36:31;;;;;;;7.53;3.00;;;;;;;28.54;31.20;100296.03;1760049;80;21014;-56
2022/08/26 06:39:01;;;;;;;8.18;3.08;;;;;;;28.88;30.86;100301.45;1733032;80;21054;-57
2022/08/26 06:41:30;;;;;;;6.90;2.75;;;;;;;29.26;29.53;100290.59;1731021;81;21135;-56
2022/08/26 06:43:57;;;;;;;7.45;3.15;;;;;;;29.56;28.89;100309.16;1744044;81;21242;-56
2022/08/26 06:46:25;;;;;;;10.93;3.37;;;;;;;29.71;28.37;100297.80;1734120;80;21700;-55
2022/08/26 06:48:53;;;;;;;5.12;2.50;;;;;;;29.80;27.81;100303.44;1751643;80;21631;-65
2022/08/26 06:51:23;;;;;;;9.75;3.02;;;;;;;29.99;27.80;100291.64;1739659;80;21032;-56
2022/08/26 06:53:52;;;;;;;6.95;2.90;;;;;;;30.16;27.09;100299.80;1748035;80;21025;-60
2022/08/26 06:56:21;;;;;;;6.58;2.85;;;;;;;30.27;27.58;100286.84;1719964;80;21151;-55
2022/08/26 06:58:48;;;;;;;7.53;2.58;;;;;;;30.61;27.14;100280.70;1724396;80;20991;-55
2022/08/26 07:01:23;;;;;;;5.08;3.05;;;;;;;30.89;27.16;100287.12;1764941;81;21114;-55
2022/08/26 07:03:53;;;;;;;7.87;2.90;;;;;;;31.10;26.41;100276.46;1741030;80;20972;-55
2022/08/26 07:06:20;;;;;;;7.10;2.40;;;;;;;31.15;26.57;100270.37;1745201;80;21441;-60
2022/08/26 07:08:48;;;;;;;5.28;2.70;;;;;;;31.28;25.95;100274.52;1742050;80;21343;-55
2022/08/26 07:11:18;;;;;;;7.33;2.98;;;;;;;31.32;25.91;100272.80;1739992;80;21237;-55
2022/08/26 07:13:46;;;;;;;6.95;2.98;;;;;;;31.29;26.04;100270.71;1750150;80;21374;-57
2022/08/26 07:16:15;;;;;;;9.80;2.87;;;;;;;31.37;26.04;100253.78;1747705;80;21515;-55
2022/08/26 07:18:42;;;;;;;6.85;2.92;;;;;;;31.38;25.69;100251.31;1728510;81;21133;-56
2022/08/26 07:21:12;;;;;;;9.10;3.10;;;;;;;31.21;26.18;100253.47;1736812;81;21216;-55
2022/08/26 07:23:39;;;;;;;9.15;2.92;;;;;;;31.04;26.49;100244.89;1733325;81;21026;-60
2022/08/26 07:26:09;;;;;;;6.37;2.87;;;;;;;30.80;26.06;100244.61;1735543;81;21520;-56
2022/08/26 07:28:36;;;;;;;6.30;2.70;;;;;;;30.39;26.39;100251.27;1741336;81;21086;-56
2022/08/26 07:31:10;;;;;;;5.28;2.92;;;;;;;29.67;27.00;100239.08;1742423;80;21535;-56
2022/08/26 07:33:38;;;;;;;7.55;2.65;;;;;;;29.67;27.00;100239.08;1720037;80;21321;-66
2022/08/26 07:36:07;;;;;;;7.22;2.42;;;;;;;29.31;27.81;100237.31;1768230;80;21338;-55
2022/08/26 07:38:34;;;;;;;6.53;2.47;;;;;;;29.02;28.53;100240.49;1746381;80;20936;-57
2022/08/26 07:41:02;;;;;;;5.78;2.72;;;;;;;28.85;28.27;100235.20;1741301;80;21099;-55
2022/08/26 07:43:30;;;;;;;7.83;2.77;;;;;;;28.62;28.62;100233.63;1735887;80;21246;-55
2022/08/26 07:45:57;;;;;;;5.92;2.27;;;;;;;28.43;28.93;100249.88;1739388;80;22549;-56
2022/08/26 07:48:25;;;;;;;6.50;2.95;;;;;;;28.29;29.35;100243.17;1722885;80;21910;-56
2022/08/26 07:50:52;;;;;;;7.60;2.42;;;;;;;28.19;29.46;100244.75;1733712;80;21127;-55
2022/08/26 07:53:20;;;;;;;5.40;2.22;;;;;;;28.14;29.76;100230.89;1733207;80;21745;-55
2022/08/26 07:55:48;;;;;;;6.58;2.30;;;;;;;28.13;30.13;100232.55;1756225;80;21042;-65
2022/08/26 07:58:16;;;;;;;6.95;2.42;;;;;;;28.11;29.70;100220.01;1760469;80;21722;-56
2022/08/26 08:00:43;;;;;;;5.30;2.33;;;;;;;28.06;29.89;100232.95;1742229;80;21511;-55
2022/08/26 08:03:10;;;;;;;5.62;2.52;;;;;;;28.07;30.14;100221.16;1743716;80;21200;-56
2022/08/26 08:05:38;;;;;;;6.17;2.58;;;;;;;28.12;30.40;100229.63;1754435;80;21821;-55
2022/08/26 08:08:06;;;;;;;7.83;2.80;;;;;;;28.18;30.47;100216.34;1734617;80;21096;-61
2022/08/26 08:10:35;;;;;;;5.08;2.20;;;;;;;28.28;30.68;100220.15;1739880;80;21197;-60
2022/08/26 08:13:04;;;;;;;6.03;2.83;;;;;;;28.34;30.14;100218.95;1727640;80;21409;-55
2022/08/26 08:15:32;;;;;;;5.20;2.55;;;;;;;28.35;30.42;100219.19;1759559;80;21067;-55
2022/08/26 08:18:00;;;;;;;6.65;2.33;;;;;;;28.40;30.48;100214.83;1727531;80;21054;-55
2022/08/26 08:20:27;;;;;;;7.12;2.30;;;;;;;28.47;30.60;100208.51;1749644;79;21655;-56
2022/08/26 08:22:54;;;;;;;4.90;2.35;;;;;;;28.50;30.56;100201.20;1739633;80;21804;-56
2022/08/26 08:25:22;;;;;;;5.40;2.30;;;;;;;28.54;29.71;100195.47;1720790;80;21715;-55
2022/08/26 08:27:49;;;;;;;5.83;2.02;;;;;;;28.53;29.55;100203.28;1755951;80;21108;-55
2022/08/26 08:30:18;;;;;;;4.80;2.98;;;;;;;28.52;29.74;100201.12;1729140;80;21110;-55
2022/08/26 08:32:45;;;;;;;7.30;3.65;;;;;;;28.53;30.13;100214.80;1734918;80;21530;-65
2022/08/26 08:35:15;;;;;;;9.13;3.27;;;;;;;28.59;29.86;100196.13;1725775;80;21161;-56
2022/08/26 08:37:42;;;;;;;7.72;2.47;;;;;;;28.67;29.79;100197.84;1737188;80;20960;-55
2022/08/26 08:40:10;;;;;;;6.92;2.67;;;;;;;28.70;30.08;100194.00;1736797;80;21044;-63
2022/08/26 08:43:03;;;;;;;6.00;2.72;;;;;;;28.78;30.04;100195.16;1753881;80;21083;-56
2022/08/26 08:45:49;;;;;;;11.68;6.65;;;;;;;28.81;30.28;100191.31;1728050;80;21024;-55
2022/08/26 08:48:36;;;;;;;7.33;4.30;;;;;;;28.86;29.66;100191.17;1721351;80;21448;-60
2022/08/26 08:51:17;;;;;;;5.80;3.00;;;;;;;28.93;30.36;100189.95;1752211;80;21016;-56
2022/08/26 08:53:45;;;;;;;10.68;3.10;;;;;;;29.05;29.74;100183.49;1692820;81;21353;-57
2022/08/26 08:56:29;;;;;;;6.58;2.90;;;;;;;29.12;29.28;100180.38;1738071;80;20953;-57
2022/08/26 08:59:16;;;;;;;7.60;2.47;;;;;;;29.13;29.71;100184.08;1759483;80;21134;-63
2022/08/26 09:02:01;;;;;;;6.70;2.95;;;;;;;29.16;29.28;100191.52;1756942;81;21211;-65
2022/08/26 09:04:56;;;;;;;4.00;2.62;;;;;;;29.23;29.51;100187.84;1757352;80;21008;-55
2022/08/26 09:07:49;;;;;;;7.10;2.90;;;;;;;29.30;29.09;100190.88;1756349;80;21058;-55
2022/08/26 09:10:38;;;;;;;6.47;3.12;;;;;;;29.29;29.12;100189.30;1720609;80;21022;-57
2022/08/26 09:13:13;;;;;;;4.67;3.05;;;;;;;29.31;29.26;100197.03;1730827;80;21523;-55
2022/08/26 09:16:05;;;;;;;5.67;3.10;;;;;;;29.33;29.20;100195.64;1751101;81;21225;-55
2022/08/26 09:19:10;;;;;;;4.70;2.70;;;;;;;29.41;29.50;100191.95;1699072;82;21530;-57
2022/08/26 09:21:37;;;;;;;5.83;2.65;;;;;;;29.51;29.03;100188.97;1703033;82;20953;-63
2022/08/26 09:24:05;;;;;;;7.40;2.83;;;;;;;29.62;29.11;100192.20;1729451;80;21012;-57
2022/08/26 09:26:44;;;;;;;4.33;2.80;;;;;;;29.66;28.59;100193.94;1735188;80;21502;-55
2022/08/26 09:29:24;;;;;;;4.85;2.50;;;;;;;29.69;28.65;100208.66;1741743;80;21270;-56
2022/08/26 09:31:54;;;;;;;4.42;2.90;;;;;;;29.71;28.42;100200.53;1740730;80;21194;-55
2022/08/26 09:34:25;;;;;;;5.80;2.80;;;;;;;29.77;28.52;100200.61;1746301;80;21573;-55
2022/08/26 09:36:55;;;;;;;4.90;3.30;;;;;;;29.85;28.75;100192.87;1735278;80;21046;-57
2022/08/26 09:39:29;;;;;;;6.25;3.02;;;;;;;29.90;29.13;100200.81;1646820;83;21513;-63
2022/08/26 09:42:11;;;;;;;5.42;2.92;;;;;;;29.97;28.97;100201.14;1701004;82;21246;-55
2022/08/26 09:44:56;;;;;;;6.30;2.83;;;;;;;30.01;29.15;100200.75;1712749;81;21042;-55
2022/08/26 09:47:46;;;;;;;6.67;2.83;;;;;;;30.03;28.80;100191.24;1703829;82;21158;-56
2022/08/26 09:50:33;;;;;;;8.33;3.42;;;;;;;30.02;28.36;100191.57;1702092;83;26591;-55
2022/08/26 09:53:18;;;;;;;5.28;2.92;;;;;;;29.94;28.71;100191.02;1706843;83;21868;-55
2022/08/26 09:55:53;;;;;;;5.85;3.27;;;;;;;29.86;28.52;100200.64;1685294;83;21630;-57
2022/08/26 09:58:42;;;;;;;4.78;3.62;;;;;;;29.84;28.82;100202.84;1698265;83;21548;-63
2022/08/26 10:01:26;;;;;;;6.20;3.70;;;;;;;29.84;29.46;100202.05;1701163;82;21031;-55
2022/08/26 10:04:08;;;;;;;4.95;3.50;;;;;;;30.04;29.55;100203.60;1690510;83;21068;-59
2022/08/26 10:06:45;;;;;;;7.50;3.42;;;;;;;30.30;28.81;100197.45;1736535;80;21581;-61
2022/08/26 10:09:15;;;;;;;7.03;4.20;;;;;;;30.42;29.02;100189.56;1719163;81;21132;-54
2022/08/26 10:11:50;;;;;;;;;;;;;;;30.51;29.04;100215.10;1763802;80;21234;-55
2022/08/26 10:14:41;;;;;;;9.65;3.98;;;;;;;30.58;28.92;100203.88;1760593;80;20613;-56
2022/08/26 10:17:32;;;;;;;5.70;3.60;;;;;;;30.56;29.10;100198.00;1719711;80;21026;-60
2022/08/26 10:20:14;;;;;;;8.35;3.87;;;;;;;30.52;29.21;100187.09;1729211;80;21577;-56
2022/08/26 10:22:58;;;;;;;7.55;3.75;;;;;;;30.49;28.96;100189.06;1731601;80;21280;-65
2022/08/26 10:25:35;;;;;;;7.55;4.03;;;;;;;30.42;29.19;100180.15;1749940;80;21063;-57
2022/08/26 10:28:34;;;;;;;8.85;4.60;;;;;;;30.42;29.54;100176.12;1746493;80;21046;-62
2022/08/26 10:31:25;;;;;;;6.67;3.45;;;;;;;30.53;29.46;100175.21;1744774;80;21059;-57
2022/08/26 10:33:54;;;;;;;7.62;3.60;;;;;;;30.61;29.41;100165.02;1750806;80;36598;-56
2022/08/26 10:39:12;;;;;;;7.22;3.70;;;;;;;30.70;29.17;100150.19;1729999;80;21565;-65
2022/08/26 10:41:40;;;;;;;5.15;3.60;;;;;;;30.70;28.95;100148.28;1740027;80;21067;-56
2022/08/26 10:44:08;;;;;;;6.05;3.60;;;;;;;30.66;29.22;100144.66;1744328;80;21561;-55
2022/08/26 10:46:42;;;;;;;10.10;3.37;;;;;;;30.63;29.23;100166.81;1750876;80;21052;-56
2022/08/26 10:49:12;;;;;;;5.65;3.35;;;;;;;30.58;28.85;100154.89;1754380;80;21121;-55
2022/08/26 10:51:51;;;;;;;7.03;3.40;;;;;;;30.53;28.76;100155.85;1748241;80;21827;-56
2022/08/26 10:54:56;;;;;;;5.97;3.55;;;;;;;30.55;28.82;100162.25;1715514;80;21022;-56
2022/08/26 10:57:35;;;;;;;4.92;3.50;;;;;;;30.55;28.82;100158.21;1733157;80;21086;-56
2022/08/26 11:03:30;;;;;;;6.40;3.72;;;;;;;30.67;28.49;100151.61;1738697;80;22968;-63
2022/08/26 11:06:19;;;;;;;6.95;5.15;;;;;;;30.75;29.12;100153.52;1727261;80;20996;-55
2022/08/26 11:08:51;;;;;;;5.95;4.12;;;;;;;30.88;29.12;100146.94;1747986;80;21075;-59
2022/08/26 11:11:44;;;;;;;5.53;3.50;;;;;;;30.93;28.64;100136.77;1747649;80;21341;-55
2022/08/26 11:14:27;;;;;;;5.65;3.37;;;;;;;30.91;28.14;100148.42;1743199;80;21418;-55
2022/08/26 11:16:56;;;;;;;4.92;2.77;;;;;;;30.89;27.76;100144.47;1741310;80;21223;-56
2022/08/26 11:19:41;;;;;;;5.08;2.90;;;;;;;30.93;26.06;100146.75;1735495;80;21144;-57
2022/08/26 11:22:33;;;;;;;6.45;3.40;;;;;;;30.95;25.87;100139.13;1740473;81;21462;-57
2022/08/26 11:25:10;;;;;;;8.20;3.20;;;;;;;31.03;25.24;100131.59;1743283;80;20944;-56
2022/08/26 11:27:43;;;;;;;6.05;3.02;;;;;;;31.03;25.53;100114.09;1738260;80;21304;-56
2022/08/26 11:30:19;;;;;;;6.87;3.12;;;;;;;31.00;25.44;100135.72;1736104;80;21116;-55
2022/08/26 11:32:56;;;;;;;5.90;3.08;;;;;;;30.99;25.79;100134.70;1748621;80;21117;-55
2022/08/26 11:35:37;;;;;;;5.47;3.10;;;;;;;31.02;25.42;100117.88;1745125;80;21004;-56
2022/08/26 11:38:16;;;;;;;5.67;3.58;;;;;;;30.98;25.27;100124.47;1724520;81;21589;-56
2022/08/26 11:40:43;;;;;;;5.20;3.33;;;;;;;30.94;24.98;100117.36;1738826;80;21121;-62
2022/08/26 11:43:16;;;;;;;8.58;3.40;;;;;;;30.89;25.01;100124.28;1728353;80;21779;-55
2022/08/26 11:45:46;;;;;;;9.78;3.98;;;;;;;30.85;25.11;100126.83;1755693;80;21004;-58
2022/08/26 11:48:22;;;;;;;6.37;4.00;;;;;;;30.80;25.12;100139.66;1743167;80;21022;-56